Time;durP1;ratioP1;P1;durP2;ratioP2;P2;SDS_P1;SDS_P2;PMS_P1;PMS_P2;Temp;Humidity;BMP_temperature;BMP_pressure;BME280_temperature;BME280_humidity;BME280_pressure;Samples;Min_cycle;Max_cycle;Signal;HPM_P1;HPM_P2
2022/09/04 00:02:17;;;;;;;1.88;1.00;;;;;;;13.87;100.00;101252.88;5027372;28;20431;-84
2022/09/04 00:04:59;;;;;;;1.13;0.90;;;;;;;13.97;100.00;101247.28;5004949;28;20435;-84
2022/09/04 00:07:39;;;;;;;1.90;0.98;;;;;;;13.89;100.00;101254.22;5025544;28;20414;-85
2022/09/04 00:10:21;;;;;;;2.75;0.85;;;;;;;13.83;100.00;101260.03;5021742;28;20426;-84
2022/09/04 00:13:04;;;;;;;2.35;1.10;;;;;;;13.97;100.00;101246.50;5027400;28;20423;-86
2022/09/04 00:15:43;;;;;;;2.33;1.00;;;;;;;13.91;100.00;101246.53;5029522;28;20807;-85
2022/09/04 00:18:24;;;;;;;2.45;0.93;;;;;;;13.84;100.00;101251.53;5012164;28;20927;-85
2022/09/04 00:20:57;;;;;;;2.10;0.80;;;;;;;13.86;100.00;101248.50;5031090;28;20429;-85
2022/09/04 00:23:41;;;;;;;1.13;0.80;;;;;;;14.08;100.00;101245.28;5013388;28;20422;-84
2022/09/04 00:26:22;;;;;;;2.50;0.90;;;;;;;14.05;100.00;101248.59;5021182;28;20425;-85
2022/09/04 00:28:55;;;;;;;2.17;1.00;;;;;;;13.98;100.00;101238.00;5031192;28;20503;-85
2022/09/04 00:31:37;;;;;;;1.70;0.90;;;;;;;13.90;100.00;101257.75;5019007;28;20427;-85
2022/09/04 00:34:18;;;;;;;3.15;1.08;;;;;;;13.77;100.00;101273.75;5014745;28;20430;-84
2022/09/04 00:36:56;;;;;;;1.60;0.80;;;;;;;13.80;100.00;101271.56;5025337;28;20424;-84
2022/09/04 00:39:39;;;;;;;3.53;1.10;;;;;;;14.01;100.00;101267.50;5022245;28;20430;-84
2022/09/04 00:42:24;;;;;;;3.30;1.17;;;;;;;13.82;100.00;101253.72;5027967;28;20433;-84
2022/09/04 00:45:06;;;;;;;1.88;0.90;;;;;;;13.80;100.00;101255.94;5030343;28;20419;-84
2022/09/04 00:48:05;;;;;;;1.85;0.80;;;;;;;13.77;100.00;101267.47;5009023;28;20423;-85
2022/09/04 00:51:03;;;;;;;1.50;0.93;;;;;;;13.78;100.00;101260.88;5006702;28;20435;-84
2022/09/04 00:53:51;;;;;;;3.42;1.15;;;;;;;13.88;100.00;101270.91;5031724;28;20416;-84
2022/09/04 00:56:49;;;;;;;2.88;1.13;;;;;;;13.88;100.00;101269.00;5011760;28;20434;-85
2022/09/04 00:59:36;;;;;;;1.90;0.90;;;;;;;13.97;100.00;101269.19;5011906;28;20450;-86
2022/09/04 01:02:16;;;;;;;2.05;0.88;;;;;;;13.99;100.00;101261.53;5025774;28;20430;-85
2022/09/04 01:04:58;;;;;;;5.35;1.10;;;;;;;13.90;100.00;101265.97;5026128;28;20430;-85
2022/09/04 01:07:43;;;;;;;1.80;0.90;;;;;;;13.91;100.00;101267.63;5007848;28;20785;-85
2022/09/04 01:10:35;;;;;;;1.63;1.02;;;;;;;14.07;100.00;101271.84;5011874;28;20458;-84
2022/09/04 01:13:17;;;;;;;3.90;1.10;;;;;;;14.32;100.00;101269.09;5027792;28;20433;-84
2022/09/04 01:15:58;;;;;;;2.83;1.05;;;;;;;14.21;100.00;101271.13;5011316;28;20443;-85
2022/09/04 01:18:37;;;;;;;2.13;1.00;;;;;;;14.21;100.00;101271.97;5031791;28;20423;-85
2022/09/04 01:21:41;;;;;;;1.77;0.90;;;;;;;14.24;100.00;101271.38;5032540;28;20438;-84
2022/09/04 01:24:39;;;;;;;3.22;1.10;;;;;;;14.29;100.00;101276.81;5024880;28;20429;-85
2022/09/04 01:27:19;;;;;;;3.42;1.10;;;;;;;14.20;100.00;101269.53;5028085;28;20411;-85
2022/09/04 01:30:00;;;;;;;1.30;0.80;;;;;;;14.02;100.00;101266.41;5012880;28;20440;-85
2022/09/04 01:32:44;;;;;;;3.42;1.00;;;;;;;14.08;100.00;101261.69;5026141;28;20421;-85
2022/09/04 01:35:23;;;;;;;3.17;1.00;;;;;;;14.07;100.00;101262.78;5027774;28;20488;-85
2022/09/04 01:38:03;;;;;;;1.48;0.85;;;;;;;14.12;100.00;101269.03;5024644;28;20427;-84
2022/09/04 01:40:44;;;;;;;3.90;1.00;;;;;;;13.99;100.00;101269.72;5029495;28;20426;-86
2022/09/04 01:43:20;;;;;;;1.25;0.82;;;;;;;13.99;100.00;101272.47;5028548;28;20438;-86
2022/09/04 01:46:22;;;;;;;1.77;0.90;;;;;;;13.93;100.00;101273.59;5009256;28;20430;-86
2022/09/04 01:49:03;;;;;;;2.30;1.05;;;;;;;13.81;100.00;101276.72;5028280;28;20827;-85
2022/09/04 01:51:43;;;;;;;1.98;0.90;;;;;;;13.83;100.00;101279.19;5027419;28;20423;-85
2022/09/04 01:54:30;;;;;;;1.73;0.90;;;;;;;13.97;100.00;101273.84;5031141;28;20425;-85
2022/09/04 01:57:13;;;;;;;1.88;0.98;;;;;;;13.97;100.00;101262.91;5009822;28;20435;-84
2022/09/04 02:00:04;;;;;;;5.15;1.17;;;;;;;13.69;100.00;101257.94;5029001;28;20427;-85
2022/09/04 02:02:52;;;;;;;2.20;0.90;;;;;;;13.72;100.00;101262.84;5029777;28;20962;-85
2022/09/04 02:05:38;;;;;;;1.50;0.80;;;;;;;13.90;100.00;101257.75;5029372;28;20490;-84
2022/09/04 02:08:25;;;;;;;1.33;0.82;;;;;;;13.97;100.00;101258.25;5029051;28;20423;-84
2022/09/04 02:11:07;;;;;;;2.30;0.80;;;;;;;13.79;100.00;101276.19;5022812;28;20430;-85
2022/09/04 02:14:05;;;;;;;2.17;1.00;;;;;;;13.70;100.00;101269.69;5024071;28;20415;-86
2022/09/04 02:16:56;;;;;;;3.65;1.08;;;;;;;13.65;100.00;101269.75;5026577;28;20427;-84
2022/09/04 02:19:40;;;;;;;3.25;1.02;;;;;;;13.55;100.00;101270.66;5012688;28;20938;-85
2022/09/04 02:22:24;;;;;;;3.55;1.10;;;;;;;13.47;100.00;101269.34;5030306;28;20415;-85
2022/09/04 02:25:05;;;;;;;2.75;1.00;;;;;;;13.38;100.00;101269.13;5011539;28;20433;-85
2022/09/04 02:27:52;;;;;;;3.55;1.10;;;;;;;13.63;100.00;101274.69;5010042;28;20431;-84
2022/09/04 02:30:30;;;;;;;2.28;1.10;;;;;;;13.46;100.00;101275.91;5026170;28;20434;-86
2022/09/04 02:33:12;;;;;;;3.70;0.98;;;;;;;13.36;100.00;101273.25;5027796;28;20415;-85
2022/09/04 02:35:49;;;;;;;2.72;1.20;;;;;;;13.48;100.00;101281.06;5005278;28;20418;-84
2022/09/04 02:38:32;;;;;;;3.10;0.97;;;;;;;13.36;100.00;101271.31;5025443;28;20436;-85
2022/09/04 02:41:15;;;;;;;2.50;1.08;;;;;;;13.52;100.00;101274.78;5023491;28;20765;-85
2022/09/04 02:44:02;;;;;;;4.00;1.00;;;;;;;13.49;100.00;101275.34;5008631;28;20502;-86
2022/09/04 02:46:49;;;;;;;3.10;1.00;;;;;;;13.47;100.00;101274.00;5029718;28;20431;-85
2022/09/04 02:49:37;;;;;;;2.15;1.00;;;;;;;13.39;100.00;101273.47;5028032;28;20431;-85
2022/09/04 02:52:26;;;;;;;2.97;1.10;;;;;;;13.34;100.00;101273.50;5027682;28;20434;-84
2022/09/04 02:55:11;;;;;;;2.53;1.00;;;;;;;13.29;100.00;101292.66;5011474;28;20407;-84
2022/09/04 02:57:57;;;;;;;2.67;1.02;;;;;;;13.28;100.00;101288.28;5020950;28;20434;-84
2022/09/04 03:00:39;;;;;;;1.60;0.90;;;;;;;13.16;100.00;101285.91;5006841;28;20413;-85
2022/09/04 03:03:16;;;;;;;2.38;1.10;;;;;;;13.20;100.00;101295.19;5027694;28;20447;-84
2022/09/04 03:06:00;;;;;;;1.65;1.00;;;;;;;13.15;100.00;101287.00;5027381;28;20881;-84
2022/09/04 03:08:37;;;;;;;1.75;0.95;;;;;;;13.14;100.00;101290.03;5029270;28;20415;-85
2022/09/04 03:11:17;;;;;;;1.90;1.10;;;;;;;13.08;100.00;101292.78;5025138;28;20430;-85
2022/09/04 03:14:01;;;;;;;1.90;1.00;;;;;;;13.07;100.00;101301.28;5010125;28;20518;-84
2022/09/04 03:16:41;;;;;;;1.95;1.00;;;;;;;12.99;100.00;101299.94;5023013;28;20427;-84
2022/09/04 03:19:19;;;;;;;1.88;1.00;;;;;;;12.97;100.00;101299.41;5027474;28;20427;-85
2022/09/04 03:22:00;;;;;;;3.38;1.00;;;;;;;13.14;100.00;101300.97;5028245;28;20431;-84
2022/09/04 03:24:41;;;;;;;2.22;1.02;;;;;;;13.27;100.00;101306.63;4996709;28;20930;-85
2022/09/04 03:27:17;;;;;;;2.63;1.10;;;;;;;13.12;100.00;101303.97;5003027;28;20433;-85
2022/09/04 03:30:00;;;;;;;3.75;1.00;;;;;;;13.02;100.00;101310.31;5011099;28;20431;-84
2022/09/04 03:32:45;;;;;;;2.25;1.02;;;;;;;13.17;100.00;101298.47;5026579;28;20795;-84
2022/09/04 03:35:21;;;;;;;2.20;1.10;;;;;;;13.16;100.00;101310.53;5027406;28;20902;-85
2022/09/04 03:38:06;;;;;;;2.00;1.02;;;;;;;13.13;100.00;101311.06;5028338;28;20423;-84
2022/09/04 03:40:42;;;;;;;2.47;1.20;;;;;;;13.19;100.00;101314.59;5026786;28;20430;-85
2022/09/04 03:43:40;;;;;;;1.95;1.00;;;;;;;13.07;100.00;101315.75;5024191;28;20737;-85
2022/09/04 03:46:24;;;;;;;2.80;1.00;;;;;;;13.24;100.00;101320.84;5022711;28;20421;-84
2022/09/04 03:49:12;;;;;;;2.10;1.00;;;;;;;13.15;100.00;101319.81;5028206;28;20465;-85
2022/09/04 03:51:59;;;;;;;1.98;1.00;;;;;;;13.04;100.00;101318.22;5025382;28;20440;-84
2022/09/04 03:55:00;;;;;;;2.15;1.10;;;;;;;13.06;100.00;101327.78;5015842;28;20435;-84
2022/09/04 03:57:49;;;;;;;2.60;1.00;;;;;;;13.15;100.00;101336.22;5030191;28;20501;-85
2022/09/04 04:00:23;;;;;;;5.05;1.10;;;;;;;13.08;100.00;101333.78;5032261;28;20443;-84
2022/09/04 04:03:08;;;;;;;2.47;0.90;;;;;;;13.05;100.00;101331.59;5015088;28;20454;-85
2022/09/04 04:05:42;;;;;;;2.00;1.10;;;;;;;13.00;100.00;101339.00;5014506;28;20438;-84
2022/09/04 04:08:41;;;;;;;2.15;1.08;;;;;;;13.16;100.00;101345.22;5012232;28;20423;-85
2022/09/04 04:11:26;;;;;;;1.77;0.93;;;;;;;13.08;100.00;101343.91;5027598;28;20409;-85
2022/09/04 04:14:22;;;;;;;2.40;0.93;;;;;;;12.89;100.00;101347.25;5002889;28;20803;-84
2022/09/04 04:17:05;;;;;;;2.83;1.10;;;;;;;12.85;100.00;101357.09;5031490;28;20419;-85
2022/09/04 04:19:46;;;;;;;3.08;1.10;;;;;;;12.74;100.00;101359.03;5031631;28;20403;-84
2022/09/04 04:22:29;;;;;;;3.33;1.02;;;;;;;12.72;100.00;101363.97;5030805;28;20427;-85
2022/09/04 04:25:24;;;;;;;2.30;1.10;;;;;;;12.65;100.00;101374.38;5030277;28;20815;-85
2022/09/04 04:28:18;;;;;;;1.90;1.00;;;;;;;12.54;100.00;101368.09;5025114;28;20438;-85
2022/09/04 04:30:53;;;;;;;2.10;1.00;;;;;;;12.77;100.00;101374.03;5023082;28;20429;-85
2022/09/04 04:33:40;;;;;;;2.05;1.20;;;;;;;12.87;100.00;101365.84;5039921;28;20414;-85
2022/09/04 04:36:18;;;;;;;2.22;1.08;;;;;;;12.95;100.00;101372.63;5031471;28;20403;-84
2022/09/04 04:39:19;;;;;;;4.00;1.20;;;;;;;13.22;100.00;101374.97;5013312;28;20430;-85
2022/09/04 04:42:05;;;;;;;3.67;1.10;;;;;;;13.13;100.00;101373.91;5028532;28;20509;-85
2022/09/04 04:48:16;;;;;;;2.08;1.00;;;;;;;13.30;100.00;101384.50;5007974;28;20430;-84
2022/09/04 04:50:53;;;;;;;2.00;1.20;;;;;;;13.19;100.00;101380.19;5002312;28;20442;-85
2022/09/04 04:53:32;;;;;;;1.88;1.00;;;;;;;13.07;100.00;101381.31;5031508;28;20918;-85
2022/09/04 04:56:13;;;;;;;2.28;1.00;;;;;;;13.21;100.00;101394.38;5027474;28;20431;-86
2022/09/04 04:59:19;;;;;;;2.78;1.15;;;;;;;13.24;100.00;101400.13;5025055;28;20433;-85
2022/09/04 05:02:06;;;;;;;2.30;1.05;;;;;;;13.20;100.00;101404.50;5030132;28;20903;-85
2022/09/04 05:04:45;;;;;;;2.15;1.10;;;;;;;13.43;100.00;101405.78;5031899;28;20423;-84
2022/09/04 05:07:33;;;;;;;5.20;1.00;;;;;;;13.55;100.00;101407.38;5029643;28;20430;-84
2022/09/04 05:10:17;;;;;;;2.55;1.17;;;;;;;13.39;100.00;101406.63;5032155;28;20438;-84
2022/09/04 05:12:58;;;;;;;1.80;1.00;;;;;;;13.46;100.00;101404.41;5013275;28;20419;-86
2022/09/04 05:15:38;;;;;;;2.20;0.90;;;;;;;13.54;100.00;101405.75;5029737;28;20771;-85
2022/09/04 05:18:19;;;;;;;2.13;1.10;;;;;;;13.65;100.00;101404.59;5031703;28;20473;-85
2022/09/04 05:20:57;;;;;;;1.73;1.00;;;;;;;13.67;100.00;101415.22;5009641;28;20928;-85
2022/09/04 05:23:39;;;;;;;5.67;1.10;;;;;;;13.87;100.00;101420.56;5028639;28;20435;-85
2022/09/04 05:26:17;;;;;;;2.60;1.02;;;;;;;13.77;100.00;101426.13;5030756;28;20426;-85
2022/09/04 05:28:58;;;;;;;2.22;0.95;;;;;;;13.81;100.00;101429.09;5026682;28;20921;-86
2022/09/04 05:31:41;;;;;;;3.05;1.00;;;;;;;14.06;100.00;101419.91;5030469;28;20827;-84
2022/09/04 05:34:22;;;;;;;4.50;1.10;;;;;;;14.13;100.00;101423.13;5030388;28;20426;-84
2022/09/04 05:37:07;;;;;;;2.40;1.02;;;;;;;14.26;100.00;101418.91;5028181;28;20419;-85
2022/09/04 05:39:53;;;;;;;3.42;1.00;;;;;;;14.33;100.00;101422.13;5010607;28;20430;-84
2022/09/04 05:42:44;;;;;;;1.92;1.05;;;;;;;14.50;100.00;101429.94;5029614;28;20435;-85
2022/09/04 05:45:24;;;;;;;1.80;1.00;;;;;;;14.57;100.00;101432.31;5007790;28;20436;-85
2022/09/04 05:48:12;;;;;;;1.93;1.00;;;;;;;14.63;100.00;101434.78;5029816;28;20957;-85
2022/09/04 05:51:02;;;;;;;1.98;0.93;;;;;;;14.69;100.00;101432.78;5024456;28;20783;-88
2022/09/04 05:53:58;;;;;;;2.33;1.10;;;;;;;14.58;100.00;101439.44;5030594;28;20768;-85
2022/09/04 05:56:51;;;;;;;4.93;2.20;;;;;;;14.74;100.00;101442.91;5027921;28;20438;-86
2022/09/04 05:59:44;;;;;;;2.30;1.30;;;;;;;14.68;100.00;101441.31;5014453;28;20427;-85
2022/09/04 06:02:43;;;;;;;1.88;1.02;;;;;;;14.65;100.00;101439.16;5008352;28;20421;-85
2022/09/04 06:05:27;;;;;;;3.55;1.20;;;;;;;14.79;100.00;101437.38;5021949;28;20440;-86
2022/09/04 06:08:13;;;;;;;2.13;1.02;;;;;;;14.98;100.00;101433.88;4996226;28;20419;-84
2022/09/04 06:11:00;;;;;;;2.43;1.00;;;;;;;15.04;100.00;101444.50;5005192;28;21009;-84
2022/09/04 06:13:57;;;;;;;2.22;1.00;;;;;;;14.90;100.00;101440.81;4982604;28;20415;-85
2022/09/04 06:16:42;;;;;;;3.22;1.10;;;;;;;14.98;100.00;101444.84;5002660;28;20428;-85
2022/09/04 06:19:32;;;;;;;3.33;1.50;;;;;;;15.07;100.00;101446.66;5014759;28;20437;-87
2022/09/04 06:22:15;;;;;;;7.45;2.10;;;;;;;15.10;100.00;101437.84;5001596;28;20790;-85
2022/09/04 06:25:08;;;;;;;2.72;1.10;;;;;;;15.14;100.00;101444.38;5005425;28;20438;-85
2022/09/04 06:27:53;;;;;;;4.10;1.23;;;;;;;15.28;100.00;101449.16;5003254;28;20427;-83
2022/09/04 06:30:36;;;;;;;2.42;1.10;;;;;;;15.23;100.00;101452.78;5008778;28;20421;-84
2022/09/04 06:33:23;;;;;;;3.15;1.20;;;;;;;15.14;100.00;101449.06;4983606;28;20441;-85
2022/09/04 06:36:24;;;;;;;1.60;0.90;;;;;;;15.28;100.00;101449.16;5001184;28;20421;-83
2022/09/04 06:39:14;;;;;;;1.90;1.00;;;;;;;15.20;100.00;101453.34;5001457;28;20440;-85
2022/09/04 06:42:06;;;;;;;1.58;1.00;;;;;;;15.15;100.00;101445.22;5000753;28;20423;-85
2022/09/04 06:44:57;;;;;;;1.90;1.08;;;;;;;15.08;100.00;101448.28;5000164;28;20433;-83
2022/09/04 06:47:41;;;;;;;4.88;1.40;;;;;;;15.15;100.00;101456.19;5003386;28;20415;-84
2022/09/04 06:50:27;;;;;;;3.15;1.20;;;;;;;15.47;100.00;101457.44;4995452;28;20445;-82
2022/09/04 06:53:17;;;;;;;3.80;1.20;;;;;;;15.48;100.00;101451.66;5020082;28;20415;-85
2022/09/04 06:56:03;;;;;;;2.78;1.20;;;;;;;15.39;100.00;101458.09;4998666;28;20433;-84
2022/09/04 06:58:53;;;;;;;5.43;2.60;;;;;;;15.66;100.00;101471.19;5009080;28;20421;-84
2022/09/04 07:01:39;;;;;;;2.22;1.33;;;;;;;15.42;100.00;101461.03;5014946;28;20411;-84
2022/09/04 07:04:21;;;;;;;2.28;1.42;;;;;;;15.79;100.00;101466.88;5014008;28;20434;-85
2022/09/04 07:07:03;;;;;;;2.92;1.27;;;;;;;15.91;100.00;101466.44;5019446;28;20429;-83
2022/09/04 07:09:42;;;;;;;4.40;1.30;;;;;;;15.79;100.00;101467.72;5031800;28;20817;-84
2022/09/04 07:12:31;;;;;;;3.03;1.40;;;;;;;15.76;100.00;101465.53;4993059;28;20430;-80
2022/09/04 07:15:33;;;;;;;6.22;1.73;;;;;;;15.85;100.00;101475.88;5013193;28;20441;-83
2022/09/04 07:18:18;;;;;;;4.97;1.40;;;;;;;15.65;100.00;101469.53;5027408;28;20917;-84
2022/09/04 07:21:01;;;;;;;3.55;1.70;;;;;;;15.96;100.00;101464.47;5012918;28;20423;-85
2022/09/04 07:23:43;;;;;;;3.72;1.60;;;;;;;16.08;100.00;101458.53;5013039;28;20437;-84
2022/09/04 07:26:26;;;;;;;5.05;1.65;;;;;;;16.28;100.00;101467.53;4994661;28;20426;-85
2022/09/04 07:29:31;;;;;;;3.00;1.52;;;;;;;16.23;100.00;101470.41;5002423;28;20425;-83
2022/09/04 07:32:08;;;;;;;3.75;1.50;;;;;;;16.18;100.00;101484.19;5011086;28;21623;-84
2022/09/04 07:34:50;;;;;;;4.30;1.50;;;;;;;16.09;100.00;101481.31;5010387;28;21311;-86
2022/09/04 07:37:27;;;;;;;3.83;1.50;;;;;;;16.30;100.00;101481.81;5011167;28;20557;-83
2022/09/04 07:40:06;;;;;;;3.60;1.60;;;;;;;16.46;100.00;101485.09;4998436;28;20432;-85
2022/09/04 07:42:41;;;;;;;2.67;1.50;;;;;;;16.49;100.00;101488.09;4993419;28;20437;-85
2022/09/04 07:45:31;;;;;;;3.55;1.65;;;;;;;16.38;100.00;101483.03;5011181;28;21020;-86
2022/09/04 07:48:11;;;;;;;2.90;1.50;;;;;;;16.41;100.00;101483.28;5012835;28;21037;-84
2022/09/04 07:51:03;;;;;;;3.58;1.70;;;;;;;16.71;100.00;101488.53;5018519;28;20843;-85
2022/09/04 07:54:25;;;;;;;10.70;5.38;;;;;;;16.86;100.00;101493.75;5015921;28;20425;-85
2022/09/04 07:57:28;;;;;;;3.10;1.67;;;;;;;16.75;100.00;101495.06;4941313;28;20436;-84
2022/09/04 08:00:06;;;;;;;5.70;1.80;;;;;;;16.91;100.00;101490.97;4990225;28;20456;-86
2022/09/04 08:03:00;;;;;;;3.80;2.00;;;;;;;16.91;100.00;101488.22;4989604;28;20677;-84
2022/09/04 08:05:43;;;;;;;3.13;1.70;;;;;;;17.09;100.00;101500.25;5007279;28;20786;-84
2022/09/04 08:08:43;;;;;;;3.80;1.80;;;;;;;17.24;100.00;101501.09;4990383;28;21698;-84
2022/09/04 08:11:44;;;;;;;3.83;1.90;;;;;;;17.28;100.00;101505.66;4976786;28;21243;-83
2022/09/04 08:14:23;;;;;;;6.22;3.33;;;;;;;17.77;100.00;101491.47;5009254;28;21189;-83
2022/09/04 08:17:24;;;;;;;8.43;1.85;;;;;;;17.83;100.00;101495.75;4997574;28;20425;-86
2022/09/04 08:20:02;;;;;;;4.30;1.83;;;;;;;17.51;100.00;101492.81;4989289;28;20435;-83
2022/09/04 08:22:47;;;;;;;5.35;2.00;;;;;;;17.81;100.00;101507.03;5009598;28;20703;-84
2022/09/04 08:25:27;;;;;;;4.18;2.08;;;;;;;17.95;100.00;101509.81;5013239;28;20813;-83
2022/09/04 08:28:16;;;;;;;3.90;2.10;;;;;;;18.02;100.00;101517.63;5008854;28;20426;-84
2022/09/04 08:30:56;;;;;;;5.00;1.90;;;;;;;17.97;100.00;101523.28;4989626;28;20450;-84
2022/09/04 08:34:00;;;;;;;4.07;2.00;;;;;;;17.96;100.00;101514.19;5010530;28;21166;-84
2022/09/04 08:36:41;;;;;;;3.15;1.75;;;;;;;18.13;100.00;101518.22;5017060;28;20429;-80
2022/09/04 08:39:19;;;;;;;3.63;2.00;;;;;;;18.05;100.00;101521.72;4991558;28;20932;-85
2022/09/04 08:42:27;;;;;;;5.38;3.00;;;;;;;18.34;100.00;101532.34;5011849;28;20433;-84
2022/09/04 08:45:45;;;;;;;5.05;2.00;;;;;;;18.30;100.00;101536.84;5009075;28;20436;-84
2022/09/04 08:48:34;;;;;;;3.70;2.00;;;;;;;18.35;100.00;101529.28;5023270;28;20430;-84
2022/09/04 08:51:32;;;;;;;4.10;2.17;;;;;;;18.46;100.00;101532.63;5025655;28;20439;-85
2022/09/04 08:54:34;;;;;;;3.43;2.10;;;;;;;18.36;100.00;101527.34;5023811;28;20496;-88
2022/09/04 08:57:43;;;;;;;4.22;2.03;;;;;;;18.43;100.00;101524.94;5029651;28;20888;-88
2022/09/04 09:00:19;;;;;;;6.57;2.10;;;;;;;18.59;100.00;101532.84;5022110;28;20427;-87
2022/09/04 09:03:19;;;;;;;4.20;2.20;;;;;;;18.79;100.00;101539.78;5026437;28;20407;-87
2022/09/04 09:06:35;;;;;;;3.80;2.17;;;;;;;18.60;100.00;101538.06;5025912;28;20450;-86
2022/09/04 09:09:44;;;;;;;4.10;2.33;;;;;;;18.58;100.00;101537.53;4955895;28;20439;-86
2022/09/04 09:12:49;;;;;;;5.30;2.60;;;;;;;18.72;100.00;101539.44;5028066;28;20429;-86
2022/09/04 09:15:40;;;;;;;5.80;2.03;;;;;;;18.85;100.00;101536.59;5027768;28;20942;-85
2022/09/04 09:18:34;;;;;;;5.63;2.47;;;;;;;18.92;100.00;101540.88;5021566;28;20943;-85
2022/09/04 09:21:10;;;;;;;4.53;2.42;;;;;;;19.03;100.00;101539.50;5029459;28;20422;-85
2022/09/04 09:23:47;;;;;;;3.88;2.20;;;;;;;18.97;100.00;101537.97;5023673;28;20423;-85
2022/09/04 09:26:29;;;;;;;4.60;2.40;;;;;;;19.12;99.70;101536.78;5008343;28;20446;-86
2022/09/04 09:29:29;;;;;;;4.97;2.60;;;;;;;19.10;100.00;101531.56;5009307;28;20434;-85
2022/09/04 09:32:30;;;;;;;4.45;2.30;;;;;;;19.32;96.38;101525.16;5027326;28;20429;-86
2022/09/04 09:35:50;;;;;;;6.40;2.40;;;;;;;19.35;100.00;101527.28;5029470;28;20892;-85
2022/09/04 09:38:42;;;;;;;5.60;2.92;;;;;;;19.69;99.51;101536.00;5030160;28;20418;-85
2022/09/04 09:41:46;;;;;;;4.70;2.35;;;;;;;19.56;100.00;101535.00;5018435;28;20431;-86
2022/09/04 09:45:02;;;;;;;5.57;2.40;;;;;;;19.79;92.52;101524.66;5004920;28;20438;-84
2022/09/04 09:48:07;;;;;;;6.25;2.60;;;;;;;19.66;99.55;101522.84;4997289;28;20438;-83
2022/09/04 09:51:10;;;;;;;7.50;2.70;;;;;;;19.98;92.80;101535.44;5007245;28;20446;-84
2022/09/04 09:54:06;;;;;;;5.60;2.45;;;;;;;19.84;97.78;101524.50;4986611;28;20511;-84
2022/09/04 09:57:01;;;;;;;5.00;2.45;;;;;;;19.94;94.12;101526.19;4949397;28;20925;-83
2022/09/04 09:59:49;;;;;;;5.03;2.50;;;;;;;20.04;90.66;101519.53;4986744;28;20426;-82
2022/09/04 10:02:57;;;;;;;3.88;2.20;;;;;;;20.04;100.00;101525.84;5005072;28;20435;-83
2022/09/04 10:05:51;;;;;;;4.38;2.40;;;;;;;20.22;96.13;101510.09;5006439;28;20436;-84
2022/09/04 10:08:49;;;;;;;5.45;2.65;;;;;;;20.32;88.69;101510.91;5000010;28;20427;-83
2022/09/04 10:11:53;;;;;;;4.78;2.30;;;;;;;20.28;89.31;101509.94;4993999;28;20987;-84
2022/09/04 10:14:55;;;;;;;4.78;2.42;;;;;;;20.00;96.26;101505.53;5002267;28;20436;-83
2022/09/04 10:17:57;;;;;;;5.10;2.38;;;;;;;20.48;84.44;101502.91;4983766;28;20712;-84
2022/09/04 10:20:56;;;;;;;5.25;2.50;;;;;;;20.21;93.48;101504.88;5007480;28;20576;-85
2022/09/04 10:24:04;;;;;;;6.38;2.30;;;;;;;20.31;92.17;101501.78;4987269;28;20791;-83
2022/09/04 10:27:10;;;;;;;4.45;2.47;;;;;;;20.32;94.72;101499.84;5001813;28;20489;-83
2022/09/04 10:29:55;;;;;;;5.50;2.60;;;;;;;20.52;96.88;101498.34;4998607;28;20434;-84
2022/09/04 10:33:10;;;;;;;5.38;2.30;;;;;;;20.64;89.32;101492.97;5007927;28;21160;-84
2022/09/04 10:36:05;;;;;;;3.97;2.50;;;;;;;20.93;85.91;101504.47;5007992;28;20650;-83
2022/09/04 10:40:34;;;;;;;5.63;2.30;;;;;;;20.90;80.78;101492.91;5001207;28;20409;-84
2022/09/04 10:41:50;;;;;;;5.15;2.58;;;;;;;20.84;75.56;101494.25;5002783;28;20434;-82
2022/09/04 10:44:44;;;;;;;4.45;2.28;;;;;;;20.98;77.39;101488.50;5001799;28;20784;-84
2022/09/04 10:47:25;;;;;;;4.47;2.38;;;;;;;21.00;79.11;101490.94;5010021;28;20421;-85
2022/09/04 10:50:19;;;;;;;5.75;2.50;;;;;;;20.83;80.51;101497.34;5006147;28;20437;-83
2022/09/04 10:53:34;;;;;;;5.20;2.70;;;;;;;20.81;79.18;101492.16;5002257;28;20421;-83
2022/09/04 10:56:17;;;;;;;3.90;2.40;;;;;;;21.27;72.48;101497.16;5008840;28;21909;-83
2022/09/04 10:59:20;;;;;;;5.07;2.60;;;;;;;20.97;79.34;101503.47;4991214;28;20426;-83
2022/09/04 11:02:38;;;;;;;8.57;3.00;;;;;;;21.18;76.02;101502.75;4977987;28;20437;-83
2022/09/04 11:05:40;;;;;;;4.57;2.67;;;;;;;21.21;71.59;101497.38;4990944;28;20763;-82
2022/09/04 11:08:37;;;;;;;5.22;2.70;;;;;;;21.18;82.96;101506.31;4988726;28;20452;-85
2022/09/04 11:11:28;;;;;;;5.50;2.58;;;;;;;21.38;73.74;101507.53;4987722;28;21079;-83
2022/09/04 11:14:22;;;;;;;4.57;2.40;;;;;;;21.32;77.57;101503.34;5010828;28;21014;-84
2022/09/04 11:17:23;;;;;;;4.93;2.65;;;;;;;21.60;68.09;101499.28;5004087;28;20436;-83
2022/09/04 11:20:33;;;;;;;4.00;2.40;;;;;;;21.62;70.67;101499.78;5000085;28;20434;-85
2022/09/04 11:23:37;;;;;;;4.05;2.22;;;;;;;21.62;77.98;101495.06;5002508;28;20420;-84
2022/09/04 11:26:42;;;;;;;4.50;2.33;;;;;;;21.60;62.64;101493.75;4978527;28;20414;-84
2022/09/04 11:29:32;;;;;;;4.25;2.30;;;;;;;21.88;70.00;101486.56;4987575;28;20978;-84
2022/09/04 11:32:23;;;;;;;6.97;2.33;;;;;;;21.94;71.83;101487.16;4982009;28;20440;-85
2022/09/04 11:35:28;;;;;;;4.25;2.45;;;;;;;21.91;67.74;101496.16;4997293;28;20778;-83
2022/09/04 11:38:17;;;;;;;4.80;2.30;;;;;;;21.67;55.05;101477.44;5004808;28;20435;-82
2022/09/04 11:41:30;;;;;;;6.38;2.50;;;;;;;21.75;56.15;101495.97;5008623;28;20438;-82
2022/09/04 11:44:30;;;;;;;5.57;2.60;;;;;;;21.79;59.59;101493.31;4966094;28;20433;-84
2022/09/04 11:47:35;;;;;;;6.00;2.50;;;;;;;21.76;64.43;101482.91;5003160;28;20434;-83
2022/09/04 11:50:18;;;;;;;5.07;2.35;;;;;;;21.90;60.48;101484.28;4984669;28;20433;-84
2022/09/04 11:53:10;;;;;;;6.95;2.38;;;;;;;21.79;68.26;101477.50;5001003;28;20421;-85
2022/09/04 11:56:05;;;;;;;5.07;2.40;;;;;;;21.72;66.49;101480.81;5010594;28;20457;-84
2022/09/04 11:58:55;;;;;;;4.33;2.40;;;;;;;21.74;60.72;101475.75;4989929;28;20429;-83
2022/09/04 12:01:47;;;;;;;6.03;2.63;;;;;;;21.96;65.63;101487.66;5008768;28;20445;-84
2022/09/04 12:04:42;;;;;;;7.00;3.90;;;;;;;21.95;67.00;101474.94;5008541;28;20851;-84
2022/09/04 12:07:38;;;;;;;6.88;2.40;;;;;;;21.89;69.85;101477.09;5002628;28;20434;-85
2022/09/04 12:10:24;;;;;;;4.47;2.60;;;;;;;22.03;63.45;101467.72;5006608;28;20429;-84
2022/09/04 12:13:20;;;;;;;7.50;2.47;;;;;;;22.17;67.06;101465.44;5008186;28;20996;-84
2022/09/04 12:16:09;;;;;;;6.88;2.75;;;;;;;22.21;66.26;101468.38;5015046;28;20426;-84
2022/09/04 12:19:07;;;;;;;3.80;2.20;;;;;;;22.33;66.02;101467.59;5008261;28;20434;-85
2022/09/04 12:22:07;;;;;;;3.80;2.20;;;;;;;22.28;60.64;101474.16;5012481;28;20589;-83
2022/09/04 12:25:30;;;;;;;3.80;2.30;;;;;;;22.53;54.35;101474.28;4987405;28;20443;-83
2022/09/04 12:28:39;;;;;;;4.97;2.40;;;;;;;22.40;58.35;101468.69;5011528;28;20533;-83
2022/09/04 12:31:45;;;;;;;5.30;2.42;;;;;;;22.47;54.58;101464.53;5005686;28;20445;-85
2022/09/04 12:34:38;;;;;;;9.57;2.40;;;;;;;22.42;62.89;101465.56;5007022;28;20425;-86
2022/09/04 12:37:36;;;;;;;4.15;2.30;;;;;;;22.41;65.79;101470.31;4989694;28;20435;-84
2022/09/04 12:40:28;;;;;;;3.92;2.40;;;;;;;22.39;64.64;101469.03;5014430;28;20777;-82
2022/09/04 12:43:26;;;;;;;6.07;2.50;;;;;;;22.41;58.86;101464.78;4993435;28;20417;-84
2022/09/04 12:46:13;;;;;;;5.32;2.45;;;;;;;22.53;62.08;101477.06;5006016;28;20434;-85
2022/09/04 12:48:59;;;;;;;4.78;2.50;;;;;;;22.84;54.86;101475.72;4989706;28;20647;-84
2022/09/04 12:51:42;;;;;;;4.65;2.30;;;;;;;23.09;59.78;101474.59;5009521;28;20432;-85
2022/09/04 12:54:33;;;;;;;4.70;2.22;;;;;;;23.16;62.57;101468.50;4991598;28;21092;-85
2022/09/04 12:57:23;;;;;;;6.10;2.20;;;;;;;23.00;47.51;101475.88;4996694;28;20420;-84
2022/09/04 13:00:05;;;;;;;3.85;2.20;;;;;;;22.72;52.89;101473.75;5006082;28;20869;-83
2022/09/04 13:02:52;;;;;;;4.43;2.38;;;;;;;22.51;59.94;101473.78;4999566;28;20413;-84
2022/09/04 13:05:38;;;;;;;3.47;2.20;;;;;;;22.56;63.36;101476.38;5000498;28;20925;-86